createdAt,value
2023-04-06T00:00:38.179Z,58.10
2023-04-06T00:03:18.132Z,58.10
2023-04-06T00:05:48.244Z,57.80
2023-04-06T00:08:16.942Z,57.90
2023-04-06T00:10:45.933Z,58.30
2023-04-06T00:13:14.627Z,58.20
2023-04-06T00:15:43.470Z,58.10
2023-04-06T00:18:12.469Z,58.20
2023-04-06T00:20:41.478Z,57.90
2023-04-06T00:23:10.020Z,57.90
2023-04-06T00:25:38.916Z,58.00
2023-04-06T00:28:07.403Z,58.10
2023-04-06T00:30:36.613Z,58.40
2023-04-06T00:33:05.218Z,58.30
2023-04-06T00:35:34.179Z,58.40
2023-04-06T00:38:02.722Z,58.20
2023-04-06T00:40:32.337Z,58.30
2023-04-06T00:43:00.946Z,58.30
2023-04-06T00:45:30.258Z,58.10
2023-04-06T00:47:58.917Z,58.50
2023-04-06T00:50:28.144Z,58.70
2023-04-06T00:52:57.124Z,58.60
2023-04-06T00:55:30.172Z,58.60
2023-04-06T00:58:01.668Z,58.60
2023-04-06T01:00:34.026Z,58.70
2023-04-06T01:03:07.206Z,58.90
2023-04-06T01:05:42.080Z,58.70
2023-04-06T01:08:18.918Z,58.70
2023-04-06T01:10:48.561Z,58.70
2023-04-06T01:13:29.311Z,58.80
2023-04-06T01:16:03.294Z,58.60
2023-04-06T01:18:47.272Z,58.50
2023-04-06T01:21:20.740Z,58.70
2023-04-06T01:24:10.635Z,58.70
2023-04-06T01:27:05.980Z,58.90
2023-04-06T01:29:52.585Z,58.40
2023-04-06T01:32:56.802Z,58.70
2023-04-06T01:35:44.969Z,58.80
2023-04-06T01:38:22.481Z,58.80
2023-04-06T01:40:51.580Z,58.60
2023-04-06T01:43:24.070Z,58.60
2023-04-06T01:46:12.927Z,58.90
2023-04-06T01:48:45.050Z,58.90
2023-04-06T01:51:26.269Z,58.60
2023-04-06T01:53:59.860Z,58.70
2023-04-06T01:56:52.802Z,58.60
2023-04-06T01:59:30.130Z,58.80
2023-04-06T02:01:59.811Z,58.90
2023-04-06T02:04:30.601Z,59.00
2023-04-06T02:07:09.462Z,58.70
2023-04-06T02:09:38.576Z,59.00
2023-04-06T02:12:11.537Z,58.80
2023-04-06T02:14:40.601Z,58.70
2023-04-06T02:17:09.307Z,59.10
2023-04-06T02:19:39.608Z,59.10
2023-04-06T02:22:08.367Z,59.00
2023-04-06T02:24:37.803Z,59.50
2023-04-06T02:27:07.215Z,58.80
2023-04-06T02:29:36.076Z,58.90
2023-04-06T02:32:06.376Z,59.20
2023-04-06T02:34:35.675Z,59.10
2023-04-06T02:37:04.198Z,59.30
2023-04-06T02:39:33.078Z,59.40
2023-04-06T02:42:04.679Z,59.20
2023-04-06T02:44:33.620Z,59.20
2023-04-06T02:47:02.244Z,59.20
2023-04-06T02:49:31.319Z,59.30
2023-04-06T02:52:01.941Z,59.40
2023-04-06T02:54:35.062Z,59.50
2023-04-06T02:57:05.431Z,59.60
2023-04-06T02:59:40.670Z,59.50
2023-04-06T03:02:20.929Z,59.50
2023-04-06T03:04:50.530Z,59.60
2023-04-06T03:07:28.489Z,59.70
2023-04-06T03:09:57.739Z,59.50
2023-04-06T03:12:26.481Z,59.60
2023-04-06T03:15:31.445Z,59.70
2023-04-06T03:18:12.628Z,59.60
2023-04-06T03:20:46.207Z,59.70
2023-04-06T03:23:17.002Z,59.50
2023-04-06T03:25:47.731Z,59.70
2023-04-06T03:28:19.916Z,59.90
2023-04-06T03:30:56.320Z,59.60
2023-04-06T03:33:47.892Z,59.70
2023-04-06T03:36:23.632Z,59.60
2023-04-06T03:38:54.723Z,59.80
2023-04-06T03:41:23.714Z,59.60
2023-04-06T03:43:59.559Z,59.60
2023-04-06T03:46:28.484Z,59.70
2023-04-06T03:48:59.948Z,59.70
2023-04-06T03:51:29.316Z,59.60
2023-04-06T03:53:57.966Z,59.70
2023-04-06T03:56:27.561Z,59.60
2023-04-06T03:58:56.558Z,59.80
2023-04-06T04:01:26.212Z,59.80
2023-04-06T04:03:55.316Z,59.60
2023-04-06T04:06:24.502Z,59.60
2023-04-06T04:08:53.118Z,59.80
2023-04-06T04:11:22.150Z,59.50
2023-04-06T04:13:59.778Z,59.50
2023-04-06T04:16:28.861Z,59.50
2023-04-06T04:19:02.095Z,59.50
2023-04-06T04:21:32.903Z,59.40
2023-04-06T04:24:06.730Z,59.80
2023-04-06T04:26:39.702Z,59.50
2023-04-06T04:29:09.447Z,59.50
2023-04-06T04:31:40.177Z,59.50
2023-04-06T04:34:16.944Z,59.50
2023-04-06T04:36:45.898Z,59.60
2023-04-06T04:39:21.525Z,59.80
2023-04-06T04:41:59.468Z,59.60
2023-04-06T04:44:27.993Z,59.60
2023-04-06T04:46:58.370Z,59.50
2023-04-06T04:49:35.673Z,59.60
2023-04-06T04:52:06.091Z,59.70
2023-04-06T04:54:50.643Z,59.70
2023-04-06T04:57:26.826Z,59.90
2023-04-06T04:59:57.335Z,59.70
2023-04-06T05:02:27.534Z,59.90
2023-04-06T05:05:14.892Z,59.70
2023-04-06T05:07:44.891Z,59.80
2023-04-06T05:10:22.165Z,59.70
2023-04-06T05:12:56.615Z,59.70
2023-04-06T05:15:26.697Z,59.70
2023-04-06T05:17:59.927Z,59.60
2023-04-06T05:20:34.350Z,59.60
2023-04-06T05:23:03.527Z,59.60
2023-04-06T05:25:33.333Z,59.80
2023-04-06T05:28:15.325Z,59.60
2023-04-06T05:30:49.747Z,59.70
2023-04-06T05:33:19.850Z,59.80
2023-04-06T05:36:09.352Z,59.80
2023-04-06T05:38:42.632Z,59.90
2023-04-06T05:41:24.632Z,59.80
2023-04-06T05:43:53.744Z,59.70
2023-04-06T05:46:22.451Z,60.40
2023-04-06T05:48:51.507Z,60.70
2023-04-06T05:51:22.481Z,60.70
2023-04-06T05:53:51.899Z,61.60
2023-04-06T05:56:20.578Z,60.50
2023-04-06T05:58:49.630Z,60.50
2023-04-06T06:01:24.250Z,60.10
2023-04-06T06:03:53.648Z,59.90
2023-04-06T06:06:22.600Z,60.10
2023-04-06T06:09:10.223Z,60.40
2023-04-06T06:11:44.710Z,60.70
2023-04-06T06:14:17.927Z,60.00
2023-04-06T06:16:47.030Z,60.00
2023-04-06T06:19:17.994Z,60.20
2023-04-06T06:21:47.609Z,59.90
2023-04-06T06:24:17.469Z,59.70
2023-04-06T06:26:46.256Z,59.90
2023-04-06T06:29:16.910Z,59.50
2023-04-06T06:31:45.718Z,59.40
2023-04-06T06:34:14.804Z,59.60
2023-04-06T06:36:47.066Z,59.70
2023-04-06T06:39:17.242Z,59.80
2023-04-06T06:41:45.938Z,59.50
2023-04-06T06:44:15.204Z,59.60
2023-04-06T06:46:43.820Z,59.60
2023-04-06T06:49:13.597Z,59.70
2023-04-06T06:51:42.450Z,59.50
2023-04-06T06:54:11.692Z,59.50
2023-04-06T06:56:40.901Z,59.50
2023-04-06T06:59:09.806Z,59.20
2023-04-06T07:01:38.490Z,59.70
2023-04-06T07:04:09.993Z,59.00
2023-04-06T07:06:39.035Z,58.40
2023-04-06T07:09:09.280Z,58.40
2023-04-06T07:11:37.895Z,58.30
2023-04-06T07:14:08.865Z,57.70
2023-04-06T07:16:37.874Z,58.10
2023-04-06T07:19:07.254Z,57.60
2023-04-06T07:21:36.668Z,57.20
2023-04-06T07:24:05.848Z,58.10
2023-04-06T07:26:34.412Z,57.60
2023-04-06T07:29:03.388Z,57.50
2023-04-06T07:31:32.393Z,57.70
2023-04-06T07:34:01.924Z,57.50
2023-04-06T07:36:30.698Z,56.70
2023-04-06T07:38:59.975Z,57.60
2023-04-06T07:41:28.500Z,57.70
2023-04-06T07:43:59.144Z,57.60
2023-04-06T07:46:29.703Z,57.80
2023-04-06T07:49:04.927Z,57.60
2023-04-06T07:51:39.301Z,57.70
2023-04-06T07:54:08.469Z,57.70
2023-04-06T07:56:37.312Z,57.60
2023-04-06T07:59:06.312Z,57.60
2023-04-06T08:01:35.043Z,57.30
2023-04-06T08:04:04.007Z,57.10
2023-04-06T08:06:32.604Z,56.10
2023-04-06T08:09:01.493Z,57.10
2023-04-06T08:11:30.533Z,57.30
2023-04-06T08:13:59.403Z,57.20
2023-04-06T08:16:28.049Z,57.30
2023-04-06T08:18:57.154Z,57.30
2023-04-06T08:21:26.228Z,57.20
2023-04-06T08:23:55.415Z,57.20
2023-04-06T08:26:24.072Z,57.20
2023-04-06T08:28:53.121Z,57.30
2023-04-06T08:31:21.776Z,56.80
2023-04-06T08:33:50.674Z,55.90
2023-04-06T08:36:24.008Z,56.10
2023-04-06T08:38:53.660Z,55.10
2023-04-06T08:41:22.515Z,55.00
2023-04-06T08:44:04.029Z,54.50
2023-04-06T08:46:32.742Z,54.80
2023-04-06T08:49:08.069Z,55.00
2023-04-06T08:51:38.676Z,54.90
2023-04-06T08:54:07.833Z,54.40
2023-04-06T08:56:40.187Z,54.20
2023-04-06T08:59:09.172Z,55.00
2023-04-06T09:01:42.622Z,54.60
2023-04-06T09:04:12.609Z,54.10
2023-04-06T09:06:42.306Z,53.40
2023-04-06T09:09:11.278Z,53.80
2023-04-06T09:11:49.146Z,54.40
2023-04-06T09:14:18.217Z,53.80
2023-04-06T09:16:47.033Z,53.80
2023-04-06T09:19:16.019Z,53.50
2023-04-06T09:21:44.511Z,53.10
2023-04-06T09:24:13.448Z,53.20
2023-04-06T09:26:48.615Z,53.70
2023-04-06T09:29:25.986Z,53.70
2023-04-06T09:32:02.786Z,53.30
2023-04-06T09:34:31.902Z,52.70
2023-04-06T09:37:00.506Z,53.20
2023-04-06T09:39:29.423Z,52.70
2023-04-06T09:41:58.205Z,52.60
2023-04-06T09:44:28.080Z,52.10
2023-04-06T09:47:00.932Z,51.70
2023-04-06T09:49:31.996Z,51.50
2023-04-06T09:52:05.863Z,51.50
2023-04-06T09:54:34.840Z,51.90
2023-04-06T09:57:15.958Z,52.30
2023-04-06T10:00:10.978Z,51.90
2023-04-06T10:03:16.348Z,52.20
2023-04-06T10:05:52.196Z,51.50
2023-04-06T10:08:20.901Z,51.50
2023-04-06T10:10:51.059Z,51.80
2023-04-06T10:13:19.736Z,51.70
2023-04-06T10:15:48.681Z,51.40
2023-04-06T10:18:17.427Z,51.50
2023-04-06T10:21:12.487Z,51.80
2023-04-06T10:24:01.582Z,51.90
2023-04-06T10:26:30.853Z,51.90
2023-04-06T10:29:06.434Z,52.00
2023-04-06T10:31:41.161Z,50.70
2023-04-06T10:34:09.919Z,50.80
2023-04-06T10:36:39.218Z,50.90
2023-04-06T10:39:08.116Z,50.70
2023-04-06T10:41:49.301Z,50.90
2023-04-06T10:44:27.189Z,51.50
2023-04-06T10:47:03.809Z,52.10
2023-04-06T10:49:32.362Z,51.90
2023-04-06T10:52:01.273Z,51.80
2023-04-06T10:54:29.908Z,51.60
2023-04-06T10:56:59.275Z,51.80
2023-04-06T10:59:29.932Z,51.90
2023-04-06T11:01:58.923Z,52.00
2023-04-06T11:04:27.533Z,52.40
2023-04-06T11:06:56.838Z,52.40
2023-04-06T11:09:27.540Z,52.40
2023-04-06T11:11:57.279Z,52.30
2023-04-06T11:14:27.863Z,52.30
2023-04-06T11:16:56.944Z,52.30
2023-04-06T11:19:25.845Z,52.40
2023-04-06T11:21:54.717Z,52.50
2023-04-06T11:24:24.794Z,52.40
2023-04-06T11:26:57.134Z,52.50
2023-04-06T11:29:32.779Z,52.20
2023-04-06T11:32:08.626Z,52.10
2023-04-06T11:34:39.775Z,52.20
2023-04-06T11:37:13.465Z,52.10
2023-04-06T11:39:56.063Z,52.00
2023-04-06T11:42:25.872Z,52.00
2023-04-06T11:44:58.929Z,52.10
2023-04-06T11:47:38.885Z,52.40
2023-04-06T11:50:12.363Z,52.50
2023-04-06T11:52:42.441Z,52.60
2023-04-06T11:55:15.786Z,52.30
2023-04-06T11:57:44.861Z,52.20
2023-04-06T12:00:14.191Z,52.30
2023-04-06T12:02:48.126Z,52.70
2023-04-06T12:05:16.957Z,52.70
2023-04-06T12:07:46.226Z,52.70
2023-04-06T12:10:15.076Z,52.50
2023-04-06T12:12:44.533Z,52.60
2023-04-06T12:15:13.209Z,52.50
2023-04-06T12:17:42.176Z,52.60
2023-04-06T12:20:22.548Z,52.60
2023-04-06T12:22:54.654Z,52.70
2023-04-06T12:25:23.199Z,53.10
2023-04-06T12:27:51.999Z,53.30
2023-04-06T12:30:21.104Z,53.30
2023-04-06T12:32:51.282Z,53.20
2023-04-06T12:35:20.090Z,53.00
2023-04-06T12:37:49.012Z,53.10
2023-04-06T12:40:17.732Z,53.30
2023-04-06T12:42:47.593Z,53.50
2023-04-06T12:45:16.288Z,53.60
2023-04-06T12:47:45.645Z,53.60
2023-04-06T12:50:14.338Z,53.60
2023-04-06T12:52:43.238Z,53.50
2023-04-06T12:55:12.165Z,53.20
2023-04-06T12:57:41.960Z,53.50
2023-04-06T13:00:11.184Z,53.40
2023-04-06T13:02:40.266Z,53.50
2023-04-06T13:05:09.306Z,53.30
2023-04-06T13:07:38.159Z,53.30
2023-04-06T13:10:07.387Z,53.20
2023-04-06T13:12:36.263Z,53.30
2023-04-06T13:15:05.557Z,53.40
2023-04-06T13:17:34.587Z,53.40
2023-04-06T13:20:04.740Z,53.50
2023-04-06T13:22:33.789Z,53.40
2023-04-06T13:25:02.359Z,53.50
2023-04-06T13:27:35.244Z,53.20
2023-04-06T13:30:05.086Z,53.30
2023-04-06T13:32:35.111Z,53.50
2023-04-06T13:35:05.151Z,53.40
2023-04-06T13:37:35.046Z,53.30
2023-04-06T13:40:05.997Z,53.30
2023-04-06T13:42:36.333Z,53.10
2023-04-06T13:45:06.240Z,53.30
2023-04-06T13:47:35.513Z,53.10
2023-04-06T13:50:04.897Z,53.00
2023-04-06T13:52:34.016Z,53.10
2023-04-06T13:55:03.854Z,52.90
2023-04-06T13:57:32.671Z,52.90
2023-04-06T14:00:02.101Z,52.90
2023-04-06T14:02:33.705Z,53.10
2023-04-06T14:05:02.289Z,53.20
2023-04-06T14:07:31.170Z,53.10
2023-04-06T14:09:59.828Z,53.00
2023-04-06T14:12:28.783Z,52.90
2023-04-06T14:14:57.802Z,52.90
2023-04-06T14:17:26.974Z,52.90
2023-04-06T14:19:55.437Z,52.60
2023-04-06T14:22:24.277Z,52.70
2023-04-06T14:24:52.699Z,52.70
2023-04-06T14:27:22.205Z,52.80
2023-04-06T14:29:50.857Z,52.70
2023-04-06T14:32:21.035Z,53.30
2023-04-06T14:34:49.499Z,52.70
2023-04-06T14:37:19.320Z,52.70
2023-04-06T14:39:47.833Z,52.90
2023-04-06T14:42:16.961Z,52.60
2023-04-06T14:44:46.695Z,52.40
2023-04-06T14:47:21.627Z,52.60
2023-04-06T14:49:53.582Z,52.30
2023-04-06T14:52:22.513Z,52.30
2023-04-06T14:54:51.165Z,52.20
2023-04-06T14:57:20.229Z,52.40
2023-04-06T14:59:49.026Z,52.40
2023-04-06T15:02:18.411Z,52.50
2023-04-06T15:04:47.110Z,52.40
2023-04-06T15:07:16.296Z,52.30
2023-04-06T15:09:44.914Z,52.30
2023-04-06T15:12:13.830Z,52.30
2023-04-06T15:14:42.340Z,52.40
2023-04-06T15:17:11.133Z,52.40
2023-04-06T15:19:39.703Z,52.20
2023-04-06T15:22:08.639Z,52.10
2023-04-06T15:24:37.330Z,52.00
2023-04-06T15:27:06.242Z,52.30
2023-04-06T15:29:34.744Z,52.40
2023-04-06T15:32:03.662Z,52.40
2023-04-06T15:34:35.336Z,52.50
2023-04-06T15:37:05.272Z,52.30
2023-04-06T15:39:33.945Z,52.20
2023-04-06T15:42:02.943Z,52.30
2023-04-06T15:44:31.370Z,52.20
2023-04-06T15:47:00.345Z,52.30
2023-04-06T15:49:28.877Z,52.40
2023-04-06T15:51:57.659Z,52.70
2023-04-06T15:54:26.234Z,52.40
2023-04-06T15:56:55.002Z,53.00
2023-04-06T15:59:23.471Z,52.70
2023-04-06T16:01:52.362Z,52.10
2023-04-06T16:04:21.083Z,52.20
2023-04-06T16:06:50.852Z,52.40
2023-04-06T16:09:19.368Z,52.30
2023-04-06T16:11:48.151Z,52.30
2023-04-06T16:14:16.603Z,52.40
2023-04-06T16:16:45.478Z,52.50
2023-04-06T16:19:13.991Z,52.40
2023-04-06T16:21:42.812Z,52.70
2023-04-06T16:24:11.270Z,53.00
2023-04-06T16:26:40.330Z,52.90
2023-04-06T16:29:10.601Z,53.40
2023-04-06T16:31:39.108Z,54.10
2023-04-06T16:34:08.067Z,54.30
2023-04-06T16:46:35.301Z,54.60
2023-04-06T16:49:05.298Z,56.20
2023-04-06T16:51:33.925Z,55.70
2023-04-06T16:54:03.192Z,55.80
2023-04-06T16:56:32.925Z,55.80
2023-04-06T16:59:01.792Z,56.00
2023-04-06T17:01:31.062Z,56.10
2023-04-06T17:04:00.139Z,56.20
2023-04-06T17:06:28.947Z,56.10
2023-04-06T17:09:00.173Z,56.20
2023-04-06T17:11:39.401Z,56.20
2023-04-06T17:14:14.701Z,56.30
2023-04-06T17:16:43.294Z,56.30
2023-04-06T17:19:12.141Z,56.40
2023-04-06T17:21:42.334Z,56.30
2023-04-06T17:24:12.465Z,56.50
2023-04-06T17:26:41.143Z,56.50
2023-04-06T17:29:10.072Z,56.60
2023-04-06T17:31:38.646Z,56.80
2023-04-06T17:34:07.526Z,56.80
2023-04-06T17:36:36.081Z,56.80
2023-04-06T17:39:04.946Z,56.80
2023-04-06T17:41:35.075Z,56.70
2023-04-06T17:44:03.913Z,56.80
2023-04-06T17:46:32.520Z,55.80
2023-04-06T17:49:01.562Z,56.60
2023-04-06T17:51:31.510Z,56.80
2023-04-06T17:54:00.541Z,56.90
2023-04-06T17:56:29.532Z,57.30
2023-04-06T17:58:58.510Z,57.30
2023-04-06T18:01:27.113Z,57.40
2023-04-06T18:03:56.519Z,57.40
2023-04-06T18:06:25.790Z,57.50
2023-04-06T18:08:55.457Z,57.70
2023-04-06T18:11:25.823Z,57.90
2023-04-06T18:13:55.179Z,58.10
2023-04-06T18:16:24.043Z,58.80
2023-04-06T18:18:52.882Z,60.80
2023-04-06T18:21:21.553Z,61.40
2023-04-06T18:23:50.623Z,61.20
2023-04-06T18:26:19.683Z,62.30
2023-04-06T18:28:51.018Z,62.10
2023-04-06T18:31:21.766Z,62.30
2023-04-06T18:33:52.941Z,62.50
2023-04-06T18:36:23.011Z,62.50
2023-04-06T18:38:52.282Z,62.50
2023-04-06T18:41:22.765Z,62.40
2023-04-06T18:43:51.800Z,62.30
2023-04-06T18:46:20.688Z,62.40
2023-04-06T18:48:49.852Z,62.30
2023-04-06T18:51:18.941Z,62.30
2023-04-06T18:53:48.436Z,63.10
2023-04-06T18:56:18.833Z,62.40
2023-04-06T18:58:49.396Z,62.40
2023-04-06T19:01:31.257Z,62.40
2023-04-06T19:04:01.149Z,62.40
2023-04-06T19:06:30.217Z,62.40
2023-04-06T19:08:59.948Z,62.30
2023-04-06T19:11:28.580Z,62.30
2023-04-06T19:13:58.122Z,62.30
2023-04-06T19:16:27.572Z,62.30
2023-04-06T19:18:56.616Z,62.40
2023-04-06T19:21:29.052Z,62.40
2023-04-06T19:23:58.848Z,62.50
2023-04-06T19:26:28.244Z,62.50
2023-04-06T19:28:57.419Z,62.70
2023-04-06T19:31:28.238Z,62.70
2023-04-06T19:33:57.492Z,62.80
2023-04-06T19:36:26.416Z,62.80
2023-04-06T19:38:55.626Z,62.90
2023-04-06T19:41:24.408Z,63.00
2023-04-06T19:43:53.291Z,62.90
2023-04-06T19:46:21.766Z,63.00
2023-04-06T19:48:50.595Z,62.90
2023-04-06T19:51:18.943Z,62.80
2023-04-06T19:53:47.809Z,62.60
2023-04-06T19:56:16.410Z,62.50
2023-04-06T19:58:45.163Z,62.50
2023-04-06T20:01:13.621Z,62.50
2023-04-06T20:03:42.660Z,62.60
2023-04-06T20:06:11.288Z,62.50
2023-04-06T20:08:40.718Z,62.60
2023-04-06T20:11:09.075Z,63.70
2023-04-06T20:13:38.044Z,63.00
2023-04-06T20:16:06.514Z,63.30
2023-04-06T20:18:35.298Z,63.30
2023-04-06T20:21:03.741Z,63.20
2023-04-06T20:23:35.078Z,64.00
2023-04-06T20:26:04.496Z,63.30
2023-04-06T20:28:33.993Z,63.30
2023-04-06T20:31:02.464Z,63.00
2023-04-06T20:33:31.440Z,63.00
2023-04-06T20:36:00.611Z,62.90
2023-04-06T20:41:02.143Z,62.80
2023-04-06T20:43:31.825Z,62.80
2023-04-06T20:46:02.590Z,62.90
2023-04-06T20:48:38.248Z,62.90
2023-04-06T20:51:06.635Z,62.90
2023-04-06T20:53:35.396Z,62.90
2023-04-06T20:56:03.939Z,62.80
2023-04-06T20:58:32.570Z,62.90
2023-04-06T21:01:01.305Z,62.90
2023-04-06T21:03:30.574Z,62.90
2023-04-06T21:05:59.240Z,62.90
2023-04-06T21:08:27.955Z,62.90
2023-04-06T21:10:56.325Z,62.80
2023-04-06T21:13:25.000Z,62.90
2023-04-06T21:15:54.366Z,62.90
2023-04-06T21:18:23.237Z,63.00
2023-04-06T21:20:51.584Z,62.90
2023-04-06T21:23:20.477Z,63.00
2023-04-06T21:25:52.165Z,62.90
2023-04-06T21:28:20.963Z,63.00
2023-04-06T21:30:49.369Z,62.90
2023-04-06T21:33:18.051Z,62.90
2023-04-06T21:35:46.378Z,63.00
2023-04-06T21:38:14.977Z,63.10
2023-04-06T21:40:43.391Z,62.90
2023-04-06T21:43:12.326Z,62.90
2023-04-06T21:45:40.801Z,62.90
2023-04-06T21:48:09.488Z,63.00
2023-04-06T21:50:41.139Z,63.00
2023-04-06T21:53:09.810Z,63.00
2023-04-06T21:55:46.533Z,63.00
2023-04-06T21:58:15.598Z,63.00
2023-04-06T22:00:44.052Z,63.20
2023-04-06T22:03:13.088Z,63.10
2023-04-06T22:05:41.479Z,63.20
2023-04-06T22:08:15.197Z,63.20
2023-04-06T22:10:46.708Z,63.30
2023-04-06T22:13:15.369Z,63.20
2023-04-06T22:15:43.802Z,63.30
2023-04-06T22:18:13.020Z,63.20
2023-04-06T22:20:41.331Z,63.30
2023-04-06T22:23:10.887Z,63.40
2023-04-06T22:25:39.210Z,64.10
2023-04-06T22:28:07.863Z,63.20
2023-04-06T22:30:36.242Z,63.40
2023-04-06T22:33:05.051Z,63.40
2023-04-06T22:35:33.425Z,63.50
2023-04-06T22:38:02.363Z,63.50
2023-04-06T22:40:30.730Z,63.50
2023-04-06T22:42:59.404Z,63.60
2023-04-06T22:45:27.765Z,63.50
2023-04-06T22:47:56.524Z,63.60
2023-04-06T22:50:24.884Z,63.50
2023-04-06T22:52:53.663Z,63.50
2023-04-06T22:55:22.137Z,63.60
2023-04-06T22:57:51.323Z,63.60
2023-04-06T23:00:20.058Z,63.70
2023-04-06T23:02:49.018Z,63.60
2023-04-06T23:05:17.645Z,63.70
2023-04-06T23:07:46.417Z,63.70
2023-04-06T23:10:15.015Z,63.70
2023-04-06T23:12:43.649Z,63.70
2023-04-06T23:15:12.324Z,63.80
2023-04-06T23:17:41.352Z,63.70
2023-04-06T23:20:09.813Z,63.80
2023-04-06T23:22:38.893Z,63.70
2023-04-06T23:25:08.796Z,63.70
2023-04-06T23:27:37.342Z,63.90
2023-04-06T23:30:06.899Z,63.80
2023-04-06T23:32:35.977Z,63.80
2023-04-06T23:35:04.697Z,63.70
2023-04-06T23:37:33.306Z,63.80
2023-04-06T23:40:02.190Z,63.80
2023-04-06T23:42:31.079Z,63.70
2023-04-06T23:45:03.661Z,63.70
2023-04-06T23:47:32.575Z,63.70
2023-04-06T23:50:01.234Z,63.70
2023-04-06T23:52:30.964Z,63.70
2023-04-06T23:54:59.645Z,63.60
2023-04-06T23:57:28.295Z,63.70
